RJSO(METAR)
06/28 22:00
METAR RJSO 281300Z 28005KT 9999 FEW030 BKN230 16/13 Q1014 RMK 1CU030
A2995=
戻る
トップページへ戻る
IMOC Co,.Ltd.